sensor_id;sensor_type;location;lat;lon;timestamp;temperature;humidity
23079;DHT22;11707;50.830;4.364;2024-02-04T00:00:18;10.40;99.90
23079;DHT22;11707;50.830;4.364;2024-02-04T00:02:44;10.40;99.90
23079;DHT22;11707;50.830;4.364;2024-02-04T00:05:10;10.40;99.90
23079;DHT22;11707;50.830;4.364;2024-02-04T00:07:35;10.40;99.90
23079;DHT22;11707;50.830;4.364;2024-02-04T00:10:01;10.30;99.90
23079;DHT22;11707;50.830;4.364;2024-02-04T00:12:27;10.40;99.90
23079;DHT22;11707;50.830;4.364;2024-02-04T00:14:55;10.30;99.90
23079;DHT22;11707;50.830;4.364;2024-02-04T00:17:23;10.40;99.90
23079;DHT22;11707;50.830;4.364;2024-02-04T00:19:49;10.30;99.90
23079;DHT22;11707;50.830;4.364;2024-02-04T00:22:14;10.40;99.90
23079;DHT22;11707;50.830;4.364;2024-02-04T00:24:46;10.40;99.90
23079;DHT22;11707;50.830;4.364;2024-02-04T00:27:12;10.40;99.90
23079;DHT22;11707;50.830;4.364;2024-02-04T00:29:37;10.30;99.90
23079;DHT22;11707;50.830;4.364;2024-02-04T00:32:03;10.30;99.90
23079;DHT22;11707;50.830;4.364;2024-02-04T00:34:29;10.30;99.90
23079;DHT22;11707;50.830;4.364;2024-02-04T00:36:57;10.40;99.90
23079;DHT22;11707;50.830;4.364;2024-02-04T00:39:23;10.40;99.90
23079;DHT22;11707;50.830;4.364;2024-02-04T00:41:48;10.40;99.90
23079;DHT22;11707;50.830;4.364;2024-02-04T00:44:17;10.40;99.90
23079;DHT22;11707;50.830;4.364;2024-02-04T00:46:45;10.40;99.90
23079;DHT22;11707;50.830;4.364;2024-02-04T00:49:13;10.40;99.90
23079;DHT22;11707;50.830;4.364;2024-02-04T00:51:38;10.40;99.90
23079;DHT22;11707;50.830;4.364;2024-02-04T00:54:04;10.40;99.90
23079;DHT22;11707;50.830;4.364;2024-02-04T00:56:30;10.40;99.90
23079;DHT22;11707;50.830;4.364;2024-02-04T00:58:56;10.40;99.90
23079;DHT22;11707;50.830;4.364;2024-02-04T01:01:24;10.40;99.90
23079;DHT22;11707;50.830;4.364;2024-02-04T01:03:53;10.40;99.90
23079;DHT22;11707;50.830;4.364;2024-02-04T01:06:21;10.40;99.90
23079;DHT22;11707;50.830;4.364;2024-02-04T01:08:46;10.40;99.90
23079;DHT22;11707;50.830;4.364;2024-02-04T01:11:14;10.40;99.90
23079;DHT22;11707;50.830;4.364;2024-02-04T01:13:42;10.40;99.90
23079;DHT22;11707;50.830;4.364;2024-02-04T01:16:08;10.40;99.90
23079;DHT22;11707;50.830;4.364;2024-02-04T01:18:33;10.40;99.90
23079;DHT22;11707;50.830;4.364;2024-02-04T01:20:59;10.40;99.90
23079;DHT22;11707;50.830;4.364;2024-02-04T01:23:26;10.50;99.90
23079;DHT22;11707;50.830;4.364;2024-02-04T01:25:51;10.50;99.90
23079;DHT22;11707;50.830;4.364;2024-02-04T01:28:17;10.40;99.90
23079;DHT22;11707;50.830;4.364;2024-02-04T01:30:48;10.40;99.90
23079;DHT22;11707;50.830;4.364;2024-02-04T01:33:13;10.50;99.90
23079;DHT22;11707;50.830;4.364;2024-02-04T01:35:39;10.50;99.90
23079;DHT22;11707;50.830;4.364;2024-02-04T01:38:05;10.50;99.90
23079;DHT22;11707;50.830;4.364;2024-02-04T01:40:30;10.50;99.90
23079;DHT22;11707;50.830;4.364;2024-02-04T01:42:58;10.50;99.90
23079;DHT22;11707;50.830;4.364;2024-02-04T01:45:24;10.60;99.90
23079;DHT22;11707;50.830;4.364;2024-02-04T01:47:50;10.50;99.90
23079;DHT22;11707;50.830;4.364;2024-02-04T01:50:19;10.50;99.90
23079;DHT22;11707;50.830;4.364;2024-02-04T01:52:45;10.50;99.90
23079;DHT22;11707;50.830;4.364;2024-02-04T01:55:11;10.50;99.90
23079;DHT22;11707;50.830;4.364;2024-02-04T01:57:37;10.50;99.90
23079;DHT22;11707;50.830;4.364;2024-02-04T02:00:08;10.50;99.90
23079;DHT22;11707;50.830;4.364;2024-02-04T02:02:40;10.50;99.90
23079;DHT22;11707;50.830;4.364;2024-02-04T02:05:06;10.50;99.90
23079;DHT22;11707;50.830;4.364;2024-02-04T02:07:35;10.40;99.90
23079;DHT22;11707;50.830;4.364;2024-02-04T02:10:01;10.50;99.90
23079;DHT22;11707;50.830;4.364;2024-02-04T02:12:39;10.50;99.90
23079;DHT22;11707;50.830;4.364;2024-02-04T02:17:44;10.50;99.90
23079;DHT22;11707;50.830;4.364;2024-02-04T02:20:32;10.50;99.90
23079;DHT22;11707;50.830;4.364;2024-02-04T02:23:12;10.50;99.90
23079;DHT22;11707;50.830;4.364;2024-02-04T02:25:40;10.50;99.90
23079;DHT22;11707;50.830;4.364;2024-02-04T02:28:06;10.40;99.90
23079;DHT22;11707;50.830;4.364;2024-02-04T02:30:32;10.50;99.90
23079;DHT22;11707;50.830;4.364;2024-02-04T02:32:58;10.50;99.90
23079;DHT22;11707;50.830;4.364;2024-02-04T02:35:24;10.50;99.90
23079;DHT22;11707;50.830;4.364;2024-02-04T02:37:59;10.50;99.90
23079;DHT22;11707;50.830;4.364;2024-02-04T02:41:00;10.50;99.90
23079;DHT22;11707;50.830;4.364;2024-02-04T02:43:29;10.50;99.90
23079;DHT22;11707;50.830;4.364;2024-02-04T02:45:58;10.50;99.90
23079;DHT22;11707;50.830;4.364;2024-02-04T02:48:25;10.50;99.90
23079;DHT22;11707;50.830;4.364;2024-02-04T02:50:50;10.40;99.90
23079;DHT22;11707;50.830;4.364;2024-02-04T02:53:16;10.50;99.90
23079;DHT22;11707;50.830;4.364;2024-02-04T02:55:45;10.50;99.90
23079;DHT22;11707;50.830;4.364;2024-02-04T02:58:12;10.50;99.90
23079;DHT22;11707;50.830;4.364;2024-02-04T03:00:38;10.50;99.90
23079;DHT22;11707;50.830;4.364;2024-02-04T03:03:04;10.50;99.90
23079;DHT22;11707;50.830;4.364;2024-02-04T03:05:32;10.50;99.90
23079;DHT22;11707;50.830;4.364;2024-02-04T03:07:58;10.50;99.90
23079;DHT22;11707;50.830;4.364;2024-02-04T03:10:24;10.50;99.90
23079;DHT22;11707;50.830;4.364;2024-02-04T03:12:50;10.50;99.90
23079;DHT22;11707;50.830;4.364;2024-02-04T03:15:15;10.50;99.90
23079;DHT22;11707;50.830;4.364;2024-02-04T03:17:45;10.50;99.90
23079;DHT22;11707;50.830;4.364;2024-02-04T03:20:11;10.50;99.90
23079;DHT22;11707;50.830;4.364;2024-02-04T03:22:36;10.50;99.90
23079;DHT22;11707;50.830;4.364;2024-02-04T03:25:02;10.50;99.90
23079;DHT22;11707;50.830;4.364;2024-02-04T03:27:30;10.60;99.90
23079;DHT22;11707;50.830;4.364;2024-02-04T03:29:56;10.60;99.90
23079;DHT22;11707;50.830;4.364;2024-02-04T03:32:22;10.60;99.90
23079;DHT22;11707;50.830;4.364;2024-02-04T03:34:47;10.60;99.90
23079;DHT22;11707;50.830;4.364;2024-02-04T03:37:13;10.60;99.90
23079;DHT22;11707;50.830;4.364;2024-02-04T03:39:39;10.60;99.90
23079;DHT22;11707;50.830;4.364;2024-02-04T03:42:04;10.60;99.90
23079;DHT22;11707;50.830;4.364;2024-02-04T03:44:32;10.60;99.90
23079;DHT22;11707;50.830;4.364;2024-02-04T03:46:58;10.60;99.90
23079;DHT22;11707;50.830;4.364;2024-02-04T03:49:28;10.60;99.90
23079;DHT22;11707;50.830;4.364;2024-02-04T03:51:54;10.60;99.90
23079;DHT22;11707;50.830;4.364;2024-02-04T03:54:20;10.60;99.90
23079;DHT22;11707;50.830;4.364;2024-02-04T03:56:45;10.60;99.90
23079;DHT22;11707;50.830;4.364;2024-02-04T03:59:11;10.60;99.90
23079;DHT22;11707;50.830;4.364;2024-02-04T04:01:39;10.60;99.90
23079;DHT22;11707;50.830;4.364;2024-02-04T04:04:05;10.60;99.90
23079;DHT22;11707;50.830;4.364;2024-02-04T04:06:33;10.60;99.90
23079;DHT22;11707;50.830;4.364;2024-02-04T04:08:59;10.60;99.90
23079;DHT22;11707;50.830;4.364;2024-02-04T04:11:24;10.50;99.90
23079;DHT22;11707;50.830;4.364;2024-02-04T04:13:52;10.50;99.90
23079;DHT22;11707;50.830;4.364;2024-02-04T04:16:21;10.50;99.90
23079;DHT22;11707;50.830;4.364;2024-02-04T04:18:47;10.60;99.90
23079;DHT22;11707;50.830;4.364;2024-02-04T04:21:13;10.60;99.90
23079;DHT22;11707;50.830;4.364;2024-02-04T04:23:39;10.50;99.90
23079;DHT22;11707;50.830;4.364;2024-02-04T04:26:05;10.50;99.90
23079;DHT22;11707;50.830;4.364;2024-02-04T04:28:31;10.50;99.90
23079;DHT22;11707;50.830;4.364;2024-02-04T04:30:57;10.50;99.90
23079;DHT22;11707;50.830;4.364;2024-02-04T04:33:22;10.50;99.90
23079;DHT22;11707;50.830;4.364;2024-02-04T04:35:48;10.50;99.90
23079;DHT22;11707;50.830;4.364;2024-02-04T04:38:14;10.50;99.90
23079;DHT22;11707;50.830;4.364;2024-02-04T04:40:39;10.50;99.90
23079;DHT22;11707;50.830;4.364;2024-02-04T04:43:08;10.50;99.90
23079;DHT22;11707;50.830;4.364;2024-02-04T04:45:36;10.50;99.90
23079;DHT22;11707;50.830;4.364;2024-02-04T04:48:04;10.50;99.90
23079;DHT22;11707;50.830;4.364;2024-02-04T04:50:30;10.50;99.90
23079;DHT22;11707;50.830;4.364;2024-02-04T04:52:55;10.50;99.90
23079;DHT22;11707;50.830;4.364;2024-02-04T04:55:21;10.50;99.90
23079;DHT22;11707;50.830;4.364;2024-02-04T04:57:47;10.50;99.90
23079;DHT22;11707;50.830;4.364;2024-02-04T05:00:13;10.40;99.90
23079;DHT22;11707;50.830;4.364;2024-02-04T05:02:42;10.40;99.90
23079;DHT22;11707;50.830;4.364;2024-02-04T05:05:10;10.40;99.90
23079;DHT22;11707;50.830;4.364;2024-02-04T05:07:39;10.40;99.90
23079;DHT22;11707;50.830;4.364;2024-02-04T05:10:05;10.50;99.90
23079;DHT22;11707;50.830;4.364;2024-02-04T05:12:32;10.50;99.90
23079;DHT22;11707;50.830;4.364;2024-02-04T05:14:58;10.50;99.90
23079;DHT22;11707;50.830;4.364;2024-02-04T05:17:24;10.50;99.90
23079;DHT22;11707;50.830;4.364;2024-02-04T05:19:50;10.50;99.90
23079;DHT22;11707;50.830;4.364;2024-02-04T05:22:15;10.50;99.90
23079;DHT22;11707;50.830;4.364;2024-02-04T05:24:44;10.40;99.90
23079;DHT22;11707;50.830;4.364;2024-02-04T05:27:12;10.40;99.90
23079;DHT22;11707;50.830;4.364;2024-02-04T05:29:42;10.40;99.90
23079;DHT22;11707;50.830;4.364;2024-02-04T05:32:08;10.50;99.90
23079;DHT22;11707;50.830;4.364;2024-02-04T05:34:33;10.50;99.90
23079;DHT22;11707;50.830;4.364;2024-02-04T05:37:00;10.50;99.90
23079;DHT22;11707;50.830;4.364;2024-02-04T05:39:25;10.50;99.90
23079;DHT22;11707;50.830;4.364;2024-02-04T05:41:51;10.40;99.90
23079;DHT22;11707;50.830;4.364;2024-02-04T05:44:17;10.50;99.90
23079;DHT22;11707;50.830;4.364;2024-02-04T05:46:42;10.40;99.90
23079;DHT22;11707;50.830;4.364;2024-02-04T05:49:08;10.50;99.90
23079;DHT22;11707;50.830;4.364;2024-02-04T05:51:43;10.50;99.90
23079;DHT22;11707;50.830;4.364;2024-02-04T05:54:09;10.50;99.90
23079;DHT22;11707;50.830;4.364;2024-02-04T05:56:35;10.50;99.90
23079;DHT22;11707;50.830;4.364;2024-02-04T05:59:03;10.50;99.90
23079;DHT22;11707;50.830;4.364;2024-02-04T06:01:29;10.50;99.90
23079;DHT22;11707;50.830;4.364;2024-02-04T06:03:57;10.50;99.90
23079;DHT22;11707;50.830;4.364;2024-02-04T06:06:22;10.60;99.90
23079;DHT22;11707;50.830;4.364;2024-02-04T06:08:51;10.60;99.90
23079;DHT22;11707;50.830;4.364;2024-02-04T06:11:17;10.60;99.90
23079;DHT22;11707;50.830;4.364;2024-02-04T06:13:44;10.60;99.90
23079;DHT22;11707;50.830;4.364;2024-02-04T06:16:12;10.60;99.90
23079;DHT22;11707;50.830;4.364;2024-02-04T06:18:38;10.60;99.90
23079;DHT22;11707;50.830;4.364;2024-02-04T06:21:05;10.50;99.90
23079;DHT22;11707;50.830;4.364;2024-02-04T06:23:30;10.40;99.90
23079;DHT22;11707;50.830;4.364;2024-02-04T06:25:56;10.40;99.90
23079;DHT22;11707;50.830;4.364;2024-02-04T06:28:22;10.50;99.90
23079;DHT22;11707;50.830;4.364;2024-02-04T06:30:48;10.40;99.90
23079;DHT22;11707;50.830;4.364;2024-02-04T06:33:15;10.40;99.90
23079;DHT22;11707;50.830;4.364;2024-02-04T06:35:40;10.40;99.90
23079;DHT22;11707;50.830;4.364;2024-02-04T06:38:06;10.50;99.90
23079;DHT22;11707;50.830;4.364;2024-02-04T06:40:32;10.40;99.90
23079;DHT22;11707;50.830;4.364;2024-02-04T06:42:57;10.40;99.90
23079;DHT22;11707;50.830;4.364;2024-02-04T06:45:23;10.40;99.90
23079;DHT22;11707;50.830;4.364;2024-02-04T06:47:49;10.40;99.90
23079;DHT22;11707;50.830;4.364;2024-02-04T06:50:14;10.40;99.90
23079;DHT22;11707;50.830;4.364;2024-02-04T06:52:44;10.40;99.90
23079;DHT22;11707;50.830;4.364;2024-02-04T06:55:11;10.40;99.90
23079;DHT22;11707;50.830;4.364;2024-02-04T06:57:39;10.40;99.90
23079;DHT22;11707;50.830;4.364;2024-02-04T07:00:07;10.40;99.90
23079;DHT22;11707;50.830;4.364;2024-02-04T07:02:34;10.40;99.90
23079;DHT22;11707;50.830;4.364;2024-02-04T07:05:02;10.50;99.90
23079;DHT22;11707;50.830;4.364;2024-02-04T07:07:30;10.40;99.90
23079;DHT22;11707;50.830;4.364;2024-02-04T07:09:59;10.50;99.90
23079;DHT22;11707;50.830;4.364;2024-02-04T07:12:25;10.50;99.90
23079;DHT22;11707;50.830;4.364;2024-02-04T07:14:50;10.50;99.90
23079;DHT22;11707;50.830;4.364;2024-02-04T07:17:16;10.50;99.90
23079;DHT22;11707;50.830;4.364;2024-02-04T07:19:41;10.40;99.90
23079;DHT22;11707;50.830;4.364;2024-02-04T07:22:07;10.50;99.90
23079;DHT22;11707;50.830;4.364;2024-02-04T07:24:33;10.50;99.90
23079;DHT22;11707;50.830;4.364;2024-02-04T07:26:58;10.40;99.90
23079;DHT22;11707;50.830;4.364;2024-02-04T07:29:26;10.50;99.90
23079;DHT22;11707;50.830;4.364;2024-02-04T07:31:52;10.50;99.90
23079;DHT22;11707;50.830;4.364;2024-02-04T07:34:18;10.50;99.90
23079;DHT22;11707;50.830;4.364;2024-02-04T07:36:43;10.50;99.90
23079;DHT22;11707;50.830;4.364;2024-02-04T07:39:11;10.50;99.90
23079;DHT22;11707;50.830;4.364;2024-02-04T07:41:37;10.50;99.90
23079;DHT22;11707;50.830;4.364;2024-02-04T07:44:03;10.50;99.90
23079;DHT22;11707;50.830;4.364;2024-02-04T07:46:30;10.50;99.90
23079;DHT22;11707;50.830;4.364;2024-02-04T07:48:55;10.50;99.90
23079;DHT22;11707;50.830;4.364;2024-02-04T07:51:23;10.50;99.90
23079;DHT22;11707;50.830;4.364;2024-02-04T07:53:51;10.50;99.90
23079;DHT22;11707;50.830;4.364;2024-02-04T07:56:16;10.60;99.90
23079;DHT22;11707;50.830;4.364;2024-02-04T07:58:42;10.60;99.90
23079;DHT22;11707;50.830;4.364;2024-02-04T08:01:08;10.60;99.90
23079;DHT22;11707;50.830;4.364;2024-02-04T08:03:33;10.50;99.90
23079;DHT22;11707;50.830;4.364;2024-02-04T08:05:59;10.60;99.90
23079;DHT22;11707;50.830;4.364;2024-02-04T08:08:25;10.50;99.90
23079;DHT22;11707;50.830;4.364;2024-02-04T08:10:51;10.50;99.90
23079;DHT22;11707;50.830;4.364;2024-02-04T08:13:16;10.60;99.90
23079;DHT22;11707;50.830;4.364;2024-02-04T08:15:42;10.50;99.90
23079;DHT22;11707;50.830;4.364;2024-02-04T08:18:08;10.50;99.90
23079;DHT22;11707;50.830;4.364;2024-02-04T08:20:33;10.50;99.90
23079;DHT22;11707;50.830;4.364;2024-02-04T08:22:59;10.50;99.90
23079;DHT22;11707;50.830;4.364;2024-02-04T08:25:25;10.50;99.90
23079;DHT22;11707;50.830;4.364;2024-02-04T08:27:53;10.50;99.90
23079;DHT22;11707;50.830;4.364;2024-02-04T08:30:19;10.50;99.90
23079;DHT22;11707;50.830;4.364;2024-02-04T08:32:45;10.50;99.90
23079;DHT22;11707;50.830;4.364;2024-02-04T08:35:11;10.60;99.90
23079;DHT22;11707;50.830;4.364;2024-02-04T08:37:36;10.60;99.90
23079;DHT22;11707;50.830;4.364;2024-02-04T08:40:05;10.60;99.90
23079;DHT22;11707;50.830;4.364;2024-02-04T08:42:31;10.50;99.90
23079;DHT22;11707;50.830;4.364;2024-02-04T08:44:57;10.50;99.90
23079;DHT22;11707;50.830;4.364;2024-02-04T08:47:22;10.60;99.90
23079;DHT22;11707;50.830;4.364;2024-02-04T08:49:48;10.60;99.90
23079;DHT22;11707;50.830;4.364;2024-02-04T08:52:16;10.60;99.90
23079;DHT22;11707;50.830;4.364;2024-02-04T08:54:42;10.60;99.90
23079;DHT22;11707;50.830;4.364;2024-02-04T08:57:08;10.60;99.90
23079;DHT22;11707;50.830;4.364;2024-02-04T08:59:33;10.70;99.90
23079;DHT22;11707;50.830;4.364;2024-02-04T09:01:59;10.70;99.90
23079;DHT22;11707;50.830;4.364;2024-02-04T09:04:27;10.70;99.90
23079;DHT22;11707;50.830;4.364;2024-02-04T09:06:53;10.70;99.90
23079;DHT22;11707;50.830;4.364;2024-02-04T09:09:18;10.70;99.90
23079;DHT22;11707;50.830;4.364;2024-02-04T09:11:44;10.80;99.90
23079;DHT22;11707;50.830;4.364;2024-02-04T09:14:10;10.80;99.90
23079;DHT22;11707;50.830;4.364;2024-02-04T09:16:38;10.80;99.90
23079;DHT22;11707;50.830;4.364;2024-02-04T09:19:08;10.90;99.90
23079;DHT22;11707;50.830;4.364;2024-02-04T09:21:34;10.80;99.90
23079;DHT22;11707;50.830;4.364;2024-02-04T09:24:01;10.90;99.90
23079;DHT22;11707;50.830;4.364;2024-02-04T09:26:27;10.90;99.90
23079;DHT22;11707;50.830;4.364;2024-02-04T09:28:53;10.90;99.90
23079;DHT22;11707;50.830;4.364;2024-02-04T09:31:18;10.90;99.90
23079;DHT22;11707;50.830;4.364;2024-02-04T09:33:44;10.90;99.90
23079;DHT22;11707;50.830;4.364;2024-02-04T09:36:10;10.90;99.90
23079;DHT22;11707;50.830;4.364;2024-02-04T09:38:35;10.90;99.90
23079;DHT22;11707;50.830;4.364;2024-02-04T09:41:01;10.90;99.90
23079;DHT22;11707;50.830;4.364;2024-02-04T09:43:32;10.90;99.90
23079;DHT22;11707;50.830;4.364;2024-02-04T09:46:01;10.90;99.90
23079;DHT22;11707;50.830;4.364;2024-02-04T09:48:30;11.00;99.90
23079;DHT22;11707;50.830;4.364;2024-02-04T09:50:59;10.90;99.90
23079;DHT22;11707;50.830;4.364;2024-02-04T09:53:35;10.90;99.90
23079;DHT22;11707;50.830;4.364;2024-02-04T09:56:03;10.90;99.90
23079;DHT22;11707;50.830;4.364;2024-02-04T09:58:29;10.90;99.90
23079;DHT22;11707;50.830;4.364;2024-02-04T10:00:57;10.90;99.90
23079;DHT22;11707;50.830;4.364;2024-02-04T10:03:24;10.90;99.90
23079;DHT22;11707;50.830;4.364;2024-02-04T10:05:50;10.90;99.90
23079;DHT22;11707;50.830;4.364;2024-02-04T10:08:16;10.90;99.90
23079;DHT22;11707;50.830;4.364;2024-02-04T10:10:41;10.90;99.90
23079;DHT22;11707;50.830;4.364;2024-02-04T10:13:11;10.90;99.90
23079;DHT22;11707;50.830;4.364;2024-02-04T10:15:36;10.90;99.90
23079;DHT22;11707;50.830;4.364;2024-02-04T10:18:05;11.00;99.90
23079;DHT22;11707;50.830;4.364;2024-02-04T10:20:33;11.00;99.90
23079;DHT22;11707;50.830;4.364;2024-02-04T10:22:58;11.00;99.90
23079;DHT22;11707;50.830;4.364;2024-02-04T10:25:25;11.00;99.90
23079;DHT22;11707;50.830;4.364;2024-02-04T10:27:50;11.00;99.90
23079;DHT22;11707;50.830;4.364;2024-02-04T10:30:19;11.10;99.90
23079;DHT22;11707;50.830;4.364;2024-02-04T10:32:46;11.10;99.90
23079;DHT22;11707;50.830;4.364;2024-02-04T10:35:12;11.20;99.90
23079;DHT22;11707;50.830;4.364;2024-02-04T10:37:39;11.20;99.90
23079;DHT22;11707;50.830;4.364;2024-02-04T10:40:06;11.10;99.90
23079;DHT22;11707;50.830;4.364;2024-02-04T10:42:33;11.20;99.90
23079;DHT22;11707;50.830;4.364;2024-02-04T10:45:00;11.20;99.90
23079;DHT22;11707;50.830;4.364;2024-02-04T10:47:32;11.30;99.90
23079;DHT22;11707;50.830;4.364;2024-02-04T10:49:58;11.30;99.90
23079;DHT22;11707;50.830;4.364;2024-02-04T10:52:27;11.40;99.90
23079;DHT22;11707;50.830;4.364;2024-02-04T10:54:53;11.40;99.90
23079;DHT22;11707;50.830;4.364;2024-02-04T10:57:21;11.40;99.90
23079;DHT22;11707;50.830;4.364;2024-02-04T10:59:51;11.30;99.90
23079;DHT22;11707;50.830;4.364;2024-02-04T11:02:19;11.30;99.90
23079;DHT22;11707;50.830;4.364;2024-02-04T11:04:48;11.30;99.90
23079;DHT22;11707;50.830;4.364;2024-02-04T11:07:16;11.30;99.90
23079;DHT22;11707;50.830;4.364;2024-02-04T11:09:45;11.30;99.90
23079;DHT22;11707;50.830;4.364;2024-02-04T11:12:16;11.30;99.90
23079;DHT22;11707;50.830;4.364;2024-02-04T11:14:46;11.30;99.90
23079;DHT22;11707;50.830;4.364;2024-02-04T11:17:39;11.30;99.90
23079;DHT22;11707;50.830;4.364;2024-02-04T11:25:53;11.40;99.90
23079;DHT22;11707;50.830;4.364;2024-02-04T11:28:21;11.40;99.90
23079;DHT22;11707;50.830;4.364;2024-02-04T11:30:47;11.40;99.90
23079;DHT22;11707;50.830;4.364;2024-02-04T11:33:18;11.40;99.90
23079;DHT22;11707;50.830;4.364;2024-02-04T11:35:58;11.40;99.90
23079;DHT22;11707;50.830;4.364;2024-02-04T11:38:35;11.40;99.90
23079;DHT22;11707;50.830;4.364;2024-02-04T11:41:05;11.40;99.90
23079;DHT22;11707;50.830;4.364;2024-02-04T11:43:35;11.30;99.90
23079;DHT22;11707;50.830;4.364;2024-02-04T11:46:03;11.30;99.90
23079;DHT22;11707;50.830;4.364;2024-02-04T11:48:30;11.30;99.90
23079;DHT22;11707;50.830;4.364;2024-02-04T11:50:59;11.30;99.90
23079;DHT22;11707;50.830;4.364;2024-02-04T11:53:29;11.30;99.90
23079;DHT22;11707;50.830;4.364;2024-02-04T11:55:58;11.30;99.90
23079;DHT22;11707;50.830;4.364;2024-02-04T11:58:29;11.30;99.90
23079;DHT22;11707;50.830;4.364;2024-02-04T12:00:56;11.30;99.90
23079;DHT22;11707;50.830;4.364;2024-02-04T12:03:34;11.30;99.90
23079;DHT22;11707;50.830;4.364;2024-02-04T12:05:59;11.40;99.90
23079;DHT22;11707;50.830;4.364;2024-02-04T12:08:29;11.40;99.90
23079;DHT22;11707;50.830;4.364;2024-02-04T12:10:55;11.30;99.90
23079;DHT22;11707;50.830;4.364;2024-02-04T12:13:20;11.40;99.90
23079;DHT22;11707;50.830;4.364;2024-02-04T12:15:49;11.30;99.90
23079;DHT22;11707;50.830;4.364;2024-02-04T12:18:15;11.30;99.90
23079;DHT22;11707;50.830;4.364;2024-02-04T12:20:48;11.30;99.90
23079;DHT22;11707;50.830;4.364;2024-02-04T12:23:15;11.20;99.90
23079;DHT22;11707;50.830;4.364;2024-02-04T12:25:42;11.20;99.90
23079;DHT22;11707;50.830;4.364;2024-02-04T12:28:11;11.10;99.90
23079;DHT22;11707;50.830;4.364;2024-02-04T12:30:36;11.10;99.90
23079;DHT22;11707;50.830;4.364;2024-02-04T12:33:03;11.10;99.90
23079;DHT22;11707;50.830;4.364;2024-02-04T12:35:30;11.10;99.90
23079;DHT22;11707;50.830;4.364;2024-02-04T12:37:57;11.10;99.90
23079;DHT22;11707;50.830;4.364;2024-02-04T12:40:27;11.10;99.90
23079;DHT22;11707;50.830;4.364;2024-02-04T12:43:00;11.20;99.90
23079;DHT22;11707;50.830;4.364;2024-02-04T12:45:30;11.20;99.90
23079;DHT22;11707;50.830;4.364;2024-02-04T12:47:57;11.20;99.90
23079;DHT22;11707;50.830;4.364;2024-02-04T12:50:24;11.20;99.90
23079;DHT22;11707;50.830;4.364;2024-02-04T12:53:02;11.10;99.90
23079;DHT22;11707;50.830;4.364;2024-02-04T12:55:29;11.10;99.90
23079;DHT22;11707;50.830;4.364;2024-02-04T12:58:12;11.10;99.90
23079;DHT22;11707;50.830;4.364;2024-02-04T13:00:40;11.00;99.90
23079;DHT22;11707;50.830;4.364;2024-02-04T13:03:07;10.90;99.90
23079;DHT22;11707;50.830;4.364;2024-02-04T13:05:36;11.00;99.90
23079;DHT22;11707;50.830;4.364;2024-02-04T13:08:05;11.00;99.90
23079;DHT22;11707;50.830;4.364;2024-02-04T13:10:35;11.00;99.90
23079;DHT22;11707;50.830;4.364;2024-02-04T13:13:07;11.00;99.90
23079;DHT22;11707;50.830;4.364;2024-02-04T13:15:40;11.00;99.90
23079;DHT22;11707;50.830;4.364;2024-02-04T13:18:09;11.00;99.90
23079;DHT22;11707;50.830;4.364;2024-02-04T13:20:44;11.00;99.90
23079;DHT22;11707;50.830;4.364;2024-02-04T13:23:11;11.00;99.90
23079;DHT22;11707;50.830;4.364;2024-02-04T13:25:37;10.90;99.90
23079;DHT22;11707;50.830;4.364;2024-02-04T13:28:03;11.00;99.90
23079;DHT22;11707;50.830;4.364;2024-02-04T13:30:29;10.90;99.90
23079;DHT22;11707;50.830;4.364;2024-02-04T13:32:55;10.90;99.90
23079;DHT22;11707;50.830;4.364;2024-02-04T13:35:23;10.90;99.90
23079;DHT22;11707;50.830;4.364;2024-02-04T13:37:49;10.90;99.90
23079;DHT22;11707;50.830;4.364;2024-02-04T13:40:18;10.90;99.90
23079;DHT22;11707;50.830;4.364;2024-02-04T13:42:45;10.90;99.90
23079;DHT22;11707;50.830;4.364;2024-02-04T13:45:12;10.80;99.90
23079;DHT22;11707;50.830;4.364;2024-02-04T13:47:41;10.90;99.90
23079;DHT22;11707;50.830;4.364;2024-02-04T13:50:08;10.90;99.90
23079;DHT22;11707;50.830;4.364;2024-02-04T13:52:35;10.90;99.90
23079;DHT22;11707;50.830;4.364;2024-02-04T13:55:01;10.80;99.90
23079;DHT22;11707;50.830;4.364;2024-02-04T13:57:27;10.80;99.90
23079;DHT22;11707;50.830;4.364;2024-02-04T13:59:54;10.80;99.90
23079;DHT22;11707;50.830;4.364;2024-02-04T14:02:19;10.80;99.90
23079;DHT22;11707;50.830;4.364;2024-02-04T14:04:45;10.80;99.90
23079;DHT22;11707;50.830;4.364;2024-02-04T14:07:12;10.80;99.90
23079;DHT22;11707;50.830;4.364;2024-02-04T14:09:38;10.80;99.90
23079;DHT22;11707;50.830;4.364;2024-02-04T14:12:04;10.80;99.90
23079;DHT22;11707;50.830;4.364;2024-02-04T14:14:29;10.80;99.90
23079;DHT22;11707;50.830;4.364;2024-02-04T14:16:55;10.80;99.90
23079;DHT22;11707;50.830;4.364;2024-02-04T14:19:24;10.80;99.90
23079;DHT22;11707;50.830;4.364;2024-02-04T14:21:49;10.80;99.90
23079;DHT22;11707;50.830;4.364;2024-02-04T14:24:15;10.80;99.90
23079;DHT22;11707;50.830;4.364;2024-02-04T14:26:43;10.80;99.90
23079;DHT22;11707;50.830;4.364;2024-02-04T14:29:09;10.80;99.90
23079;DHT22;11707;50.830;4.364;2024-02-04T14:31:35;10.80;99.90
23079;DHT22;11707;50.830;4.364;2024-02-04T14:34:03;10.70;99.90
23079;DHT22;11707;50.830;4.364;2024-02-04T14:36:31;10.80;99.90
23079;DHT22;11707;50.830;4.364;2024-02-04T14:38:57;10.80;99.90
23079;DHT22;11707;50.830;4.364;2024-02-04T14:41:23;10.80;99.90
23079;DHT22;11707;50.830;4.364;2024-02-04T14:43:49;10.80;99.90
23079;DHT22;11707;50.830;4.364;2024-02-04T14:46:15;10.80;99.90
23079;DHT22;11707;50.830;4.364;2024-02-04T14:48:40;10.80;99.90
23079;DHT22;11707;50.830;4.364;2024-02-04T14:51:06;10.90;99.90
23079;DHT22;11707;50.830;4.364;2024-02-04T14:53:32;10.90;99.90
23079;DHT22;11707;50.830;4.364;2024-02-04T14:55:57;10.90;99.90
23079;DHT22;11707;50.830;4.364;2024-02-04T14:58:25;10.90;99.90
23079;DHT22;11707;50.830;4.364;2024-02-04T15:00:51;10.90;99.90
23079;DHT22;11707;50.830;4.364;2024-02-04T15:03:17;10.80;99.90
23079;DHT22;11707;50.830;4.364;2024-02-04T15:05:45;10.90;99.90
23079;DHT22;11707;50.830;4.364;2024-02-04T15:08:10;10.90;99.90
23079;DHT22;11707;50.830;4.364;2024-02-04T15:10:36;10.90;99.90
23079;DHT22;11707;50.830;4.364;2024-02-04T15:13:04;11.00;99.90
23079;DHT22;11707;50.830;4.364;2024-02-04T15:15:30;10.90;99.90
23079;DHT22;11707;50.830;4.364;2024-02-04T15:17:56;10.90;99.90
23079;DHT22;11707;50.830;4.364;2024-02-04T15:20:22;11.00;99.90
23079;DHT22;11707;50.830;4.364;2024-02-04T15:22:49;11.00;99.90
23079;DHT22;11707;50.830;4.364;2024-02-04T15:25:15;11.00;99.90
23079;DHT22;11707;50.830;4.364;2024-02-04T15:27:44;11.00;99.90
23079;DHT22;11707;50.830;4.364;2024-02-04T15:30:13;11.00;99.90
23079;DHT22;11707;50.830;4.364;2024-02-04T15:32:39;11.00;99.90
23079;DHT22;11707;50.830;4.364;2024-02-04T15:35:05;11.00;99.90
23079;DHT22;11707;50.830;4.364;2024-02-04T15:37:32;11.10;99.90